Time;durP1;ratioP1;P1;durP2;ratioP2;P2;SDS_P1;SDS_P2;PMS_P1;PMS_P2;Temp;Humidity;BMP_temperature;BMP_pressure;BME280_temperature;BME280_humidity;BME280_pressure;Samples;Min_cycle;Max_cycle;Signal;HPM_P1;HPM_P2
2022/08/20 00:00:21;;;;;;;12.60;11.20;;;;;;;18.40;100.00;101289.47;5033930;28;20431;-43
2022/08/20 00:02:51;;;;;;;12.73;11.50;;;;;;;18.38;100.00;101284.28;5056888;22;20462;-42
2022/08/20 00:05:23;;;;;;;10.70;10.00;;;;;;;18.37;100.00;101279.94;5033523;28;20432;-41
2022/08/20 00:07:51;;;;;;;11.50;10.40;;;;;;;18.36;100.00;101280.19;5034506;28;20431;-43
2022/08/20 00:10:19;;;;;;;18.63;13.17;;;;;;;18.37;100.00;101279.13;5034322;28;20470;-44
2022/08/20 00:12:48;;;;;;;13.83;12.47;;;;;;;18.36;100.00;101277.47;5033409;28;20469;-42
2022/08/20 00:15:20;;;;;;;13.90;12.60;;;;;;;18.35;100.00;101283.91;5034075;28;20424;-45
2022/08/20 00:17:49;;;;;;;14.13;12.83;;;;;;;18.34;100.00;101279.59;5033855;28;20432;-43
2022/08/20 00:20:18;;;;;;;16.90;12.90;;;;;;;18.33;100.00;101275.25;5034241;28;20523;-43
2022/08/20 00:22:47;;;;;;;14.67;13.30;;;;;;;18.34;100.00;101271.50;5032947;28;20973;-43
2022/08/20 00:25:15;;;;;;;15.20;13.90;;;;;;;18.35;100.00;101273.13;5033795;28;20439;-44
2022/08/20 00:27:43;;;;;;;15.63;13.87;;;;;;;18.35;100.00;101271.25;5033710;28;20434;-44
2022/08/20 00:30:13;;;;;;;14.37;12.97;;;;;;;18.34;100.00;101272.28;5033607;28;20566;-44
2022/08/20 00:32:47;;;;;;;15.80;13.97;;;;;;;18.35;100.00;101273.13;5032784;28;20486;-43
2022/08/20 00:35:15;;;;;;;14.67;13.47;;;;;;;18.33;100.00;101273.38;5033616;28;20443;-45
2022/08/20 00:37:43;;;;;;;13.57;12.37;;;;;;;18.34;100.00;101283.09;5033396;28;20432;-44
2022/08/20 00:40:15;;;;;;;14.30;12.77;;;;;;;18.33;100.00;101286.88;5033539;28;20924;-43
2022/08/20 00:42:54;;;;;;;15.63;14.23;;;;;;;18.30;100.00;101287.34;5032875;28;20517;-40
2022/08/20 00:45:21;;;;;;;15.27;13.77;;;;;;;18.27;100.00;101276.19;5033366;28;20788;-43
2022/08/20 00:47:50;;;;;;;13.97;12.77;;;;;;;18.21;100.00;101286.88;5033204;28;20436;-43
2022/08/20 00:50:23;;;;;;;16.60;13.87;;;;;;;18.17;100.00;101287.56;5033155;28;20498;-43
2022/08/20 00:52:52;;;;;;;15.77;14.37;;;;;;;18.13;100.00;101284.50;5032651;28;20475;-44
2022/08/20 00:55:23;;;;;;;15.73;14.23;;;;;;;18.10;100.00;101278.72;5033229;28;20442;-44
2022/08/20 00:58:02;;;;;;;15.77;14.13;;;;;;;18.08;100.00;101280.84;5033066;28;20443;-45
2022/08/20 01:00:33;;;;;;;16.13;14.43;;;;;;;18.06;100.00;101286.50;5033041;28;20432;-42
2022/08/20 01:03:02;;;;;;;16.63;15.00;;;;;;;18.03;100.00;101284.25;5036709;28;20464;-43
2022/08/20 01:05:30;;;;;;;17.00;15.33;;;;;;;17.99;100.00;101284.94;5039766;28;20428;-42
2022/08/20 01:07:58;;;;;;;17.60;16.00;;;;;;;17.98;100.00;101276.00;5040104;28;20795;-43
2022/08/20 01:10:29;;;;;;;18.30;16.57;;;;;;;17.95;100.00;101281.88;5039431;28;20479;-43
2022/08/20 01:12:59;;;;;;;19.30;17.27;;;;;;;17.96;100.00;101280.84;5038979;28;20965;-43
2022/08/20 01:15:30;;;;;;;24.20;21.63;;;;;;;17.94;100.00;101271.34;5039527;28;20432;-42
2022/08/20 01:18:00;;;;;;;20.93;18.83;;;;;;;17.93;100.00;101265.09;5039668;28;20833;-44
2022/08/20 01:20:33;;;;;;;19.27;17.23;;;;;;;17.93;100.00;101275.06;5039645;28;20523;-46
2022/08/20 01:25:59;;;;;;;20.67;18.23;;;;;;;17.91;100.00;101266.41;5039463;28;20444;-43
2022/08/20 01:28:32;;;;;;;20.07;17.90;;;;;;;17.89;100.00;101263.13;5039157;28;20803;-40
2022/08/20 01:31:00;;;;;;;24.40;20.37;;;;;;;17.88;100.00;101262.28;5038471;28;20500;-42
2022/08/20 01:33:27;;;;;;;25.00;18.53;;;;;;;17.86;100.00;101264.38;5038812;28;20435;-41
2022/08/20 01:35:55;;;;;;;26.23;21.80;;;;;;;17.86;100.00;101275.16;5039307;28;20428;-44
2022/08/20 01:38:23;;;;;;;26.23;23.30;;;;;;;17.89;100.00;101280.09;5038906;28;20797;-42
2022/08/20 01:41:07;;;;;;;25.30;22.17;;;;;;;17.93;100.00;101273.19;5038996;28;20432;-43
2022/08/20 01:43:35;;;;;;;28.07;22.70;;;;;;;17.96;100.00;101278.13;5038804;28;20439;-42
2022/08/20 01:46:04;;;;;;;24.30;20.77;;;;;;;18.02;100.00;101279.06;5038849;28;20804;-40
2022/08/20 01:48:32;;;;;;;27.63;24.63;;;;;;;18.06;100.00;101281.09;5038972;28;20428;-41
2022/08/20 01:51:06;;;;;;;26.00;22.40;;;;;;;18.09;100.00;101277.09;5037948;28;20802;-40
2022/08/20 01:53:37;;;;;;;38.83;28.80;;;;;;;18.03;100.00;101276.16;5038154;28;20439;-42
2022/08/20 01:56:09;;;;;;;27.50;24.50;;;;;;;18.02;100.00;101273.69;5038444;28;20943;-44
2022/08/20 01:58:40;;;;;;;29.73;23.80;;;;;;;18.00;100.00;101265.84;5038566;28;20446;-41
2022/08/20 02:01:08;;;;;;;26.57;22.80;;;;;;;17.99;100.00;101266.88;5037720;28;20824;-43
2022/08/20 02:03:35;;;;;;;28.30;24.63;;;;;;;17.98;100.00;101269.81;5038269;28;20431;-42
2022/08/20 02:06:10;;;;;;;25.90;20.90;;;;;;;17.95;100.00;101273.78;5038497;28;20441;-45
2022/08/20 02:08:38;;;;;;;29.93;25.70;;;;;;;17.96;100.00;101277.31;5038722;28;20439;-44
2022/08/20 02:11:07;;;;;;;32.83;22.53;;;;;;;17.95;100.00;101275.69;5037777;28;20476;-42
2022/08/20 02:13:35;;;;;;;27.50;24.20;;;;;;;17.95;100.00;101276.47;5035675;28;20500;-42
2022/08/20 02:16:04;;;;;;;29.63;23.27;;;;;;;17.95;100.00;101286.47;5034946;28;21044;-44
2022/08/20 02:18:32;;;;;;;31.47;23.50;;;;;;;17.95;100.00;101286.47;5035107;28;20438;-41
2022/08/20 02:21:00;;;;;;;40.00;28.70;;;;;;;17.96;100.00;101283.53;5034689;28;20454;-42
2022/08/20 02:23:28;;;;;;;36.80;29.23;;;;;;;17.97;100.00;101278.97;5034930;28;20436;-42
2022/08/20 02:25:55;;;;;;;33.77;27.77;;;;;;;17.95;100.00;101284.56;5035032;28;20832;-42
2022/08/20 02:28:24;;;;;;;37.23;30.60;;;;;;;17.94;100.00;101279.44;5035263;28;20442;-41
2022/08/20 02:30:54;;;;;;;33.63;27.27;;;;;;;17.92;100.00;101297.72;5034944;28;20436;-42
2022/08/20 02:33:23;;;;;;;33.10;27.10;;;;;;;17.90;100.00;101299.81;5034596;28;20562;-42
2022/08/20 02:35:52;;;;;;;31.57;26.80;;;;;;;17.86;100.00;101296.75;5035008;28;20436;-40
2022/08/20 02:38:20;;;;;;;39.80;30.37;;;;;;;17.83;100.00;101297.22;5035324;28;20443;-45
2022/08/20 02:40:48;;;;;;;32.13;26.17;;;;;;;17.82;100.00;101297.47;5034567;28;20439;-45
2022/08/20 02:43:18;;;;;;;35.60;28.90;;;;;;;17.83;100.00;101307.22;5034013;28;20464;-42
2022/08/20 02:45:47;;;;;;;38.07;28.87;;;;;;;17.81;100.00;101296.63;5034649;28;20515;-44
2022/08/20 02:48:21;;;;;;;35.80;27.60;;;;;;;17.81;100.00;101307.44;5034663;28;20436;-41
2022/08/20 02:50:52;;;;;;;34.00;27.40;;;;;;;17.81;100.00;101298.50;5034155;28;20428;-44
2022/08/20 02:53:20;;;;;;;43.27;32.60;;;;;;;17.79;100.00;101306.84;5033414;28;20463;-42
2022/08/20 02:55:47;;;;;;;40.83;30.60;;;;;;;17.80;100.00;101302.28;5034224;28;20428;-44
2022/08/20 02:58:15;;;;;;;43.87;33.57;;;;;;;17.81;100.00;101306.59;5034341;28;20451;-43
2022/08/20 03:00:43;;;;;;;48.77;35.80;;;;;;;17.82;100.00;101306.38;5034086;28;20436;-44
2022/08/20 03:03:12;;;;;;;58.10;37.80;;;;;;;17.82;100.00;101303.69;5033749;28;20470;-47
2022/08/20 03:05:42;;;;;;;45.13;34.53;;;;;;;17.84;100.00;101306.13;5034560;28;20428;-43
2022/08/20 03:08:12;;;;;;;48.93;34.97;;;;;;;17.85;100.00;101310.50;5034178;28;20428;-44
2022/08/20 03:10:41;;;;;;;44.07;31.47;;;;;;;17.86;100.00;101306.75;5034371;28;20424;-42
2022/08/20 03:13:11;;;;;;;57.00;35.80;;;;;;;17.85;100.00;101303.22;5033444;28;20474;-43
2022/08/20 03:15:41;;;;;;;46.83;32.13;;;;;;;17.86;100.00;101304.06;5034179;28;20436;-44
2022/08/20 03:18:10;;;;;;;53.87;36.00;;;;;;;17.84;100.00;101298.03;5034088;28;20443;-43
2022/08/20 03:20:40;;;;;;;53.30;35.30;;;;;;;17.85;100.00;101303.22;5033997;28;20436;-43
2022/08/20 03:23:08;;;;;;;58.13;34.93;;;;;;;17.86;100.00;101302.16;5033114;28;20463;-43
2022/08/20 03:25:36;;;;;;;41.83;30.47;;;;;;;17.89;100.00;101309.00;5033608;28;20436;-43
2022/08/20 03:28:04;;;;;;;52.47;33.93;;;;;;;17.90;100.00;101314.13;5033872;28;20461;-42
2022/08/20 03:30:32;;;;;;;41.40;31.20;;;;;;;17.92;100.00;101308.53;5034160;28;21121;-41
2022/08/20 03:33:00;;;;;;;37.70;29.80;;;;;;;17.95;100.00;101308.06;5032985;28;21023;-42
2022/08/20 03:35:31;;;;;;;38.00;27.63;;;;;;;17.97;100.00;101322.13;5033707;28;20949;-42
2022/08/20 03:38:01;;;;;;;36.80;28.53;;;;;;;18.00;100.00;101317.09;5034587;28;20428;-44
2022/08/20 03:40:31;;;;;;;38.33;27.07;;;;;;;18.04;100.00;101312.88;5034129;28;20424;-40
2022/08/20 03:43:00;;;;;;;33.70;26.67;;;;;;;18.06;100.00;101318.88;5033349;28;20991;-43
2022/08/20 03:45:28;;;;;;;36.73;27.53;;;;;;;18.07;100.00;101315.09;5034315;28;20473;-42
2022/08/20 03:47:57;;;;;;;30.53;24.57;;;;;;;18.08;100.00;101310.53;5033750;28;20441;-43
2022/08/20 03:50:28;;;;;;;32.50;26.23;;;;;;;18.08;100.00;101307.84;5034087;28;20432;-42
2022/08/20 03:52:58;;;;;;;29.20;23.87;;;;;;;18.09;100.00;101312.19;5032951;28;20482;-42
2022/08/20 03:55:29;;;;;;;37.03;29.20;;;;;;;18.08;100.00;101308.66;5034066;28;20442;-43
2022/08/20 03:58:01;;;;;;;29.30;25.80;;;;;;;18.09;100.00;101309.50;5033663;28;20440;-43
2022/08/20 04:00:33;;;;;;;30.33;27.10;;;;;;;18.07;100.00;101306.22;5033906;28;20431;-41
2022/08/20 04:03:01;;;;;;;33.17;25.83;;;;;;;18.06;100.00;101305.38;5033215;28;20467;-42
2022/08/20 04:05:31;;;;;;;29.83;26.07;;;;;;;18.06;100.00;101307.25;5033527;28;20439;-43
2022/08/20 04:08:01;;;;;;;27.73;23.90;;;;;;;18.06;100.00;101308.09;5033291;28;20439;-44
2022/08/20 04:10:31;;;;;;;28.97;24.83;;;;;;;18.05;100.00;101305.59;5033308;28;20432;-40
2022/08/20 04:12:59;;;;;;;29.00;23.57;;;;;;;18.05;100.00;101311.00;5032509;28;20480;-44
2022/08/20 04:15:28;;;;;;;32.30;24.77;;;;;;;18.04;100.00;101303.97;5033730;28;20513;-42
2022/08/20 04:17:55;;;;;;;35.57;25.77;;;;;;;18.02;100.00;101301.50;5033320;28;20442;-41
2022/08/20 04:20:24;;;;;;;31.23;26.23;;;;;;;18.00;100.00;101297.38;5033015;28;20515;-43
2022/08/20 04:22:54;;;;;;;39.73;28.43;;;;;;;17.98;100.00;101313.00;5032496;28;21006;-42
2022/08/20 04:25:27;;;;;;;39.57;29.10;;;;;;;17.98;100.00;101304.91;5033137;28;20420;-41
2022/08/20 04:27:59;;;;;;;37.77;27.30;;;;;;;17.94;100.00;101309.09;5033549;28;20423;-43
2022/08/20 04:30:29;;;;;;;35.73;27.63;;;;;;;17.92;100.00;101311.22;5033529;28;20435;-43
2022/08/20 04:32:58;;;;;;;28.90;24.63;;;;;;;17.90;100.00;101316.00;5032845;28;20476;-43
2022/08/20 04:35:26;;;;;;;31.23;23.33;;;;;;;17.88;100.00;101318.94;5033424;28;20439;-42
2022/08/20 04:38:05;;;;;;;31.13;24.90;;;;;;;17.90;100.00;101321.41;5032539;28;20952;-42
2022/08/20 04:43:21;;;;;;;35.43;27.20;;;;;;;17.89;100.00;101339.47;5032350;28;20830;-42
2022/08/20 04:45:50;;;;;;;29.00;24.60;;;;;;;17.92;100.00;101328.22;5032948;28;20425;-42
2022/08/20 04:48:19;;;;;;;31.27;24.83;;;;;;;17.95;100.00;101333.16;5033047;28;20438;-43
2022/08/20 04:50:47;;;;;;;31.50;24.10;;;;;;;18.00;100.00;101332.47;5032532;28;20436;-41
2022/08/20 04:53:17;;;;;;;33.30;26.53;;;;;;;18.04;100.00;101336.38;5031983;28;20478;-40
2022/08/20 04:55:53;;;;;;;31.40;25.10;;;;;;;18.08;100.00;101354.56;5032937;28;20510;-42
2022/08/20 04:58:26;;;;;;;26.50;23.70;;;;;;;18.13;100.00;101354.66;5032921;28;20452;-41
2022/08/20 05:00:56;;;;;;;23.70;19.97;;;;;;;18.19;100.00;101355.63;5032417;28;20431;-42
2022/08/20 05:03:28;;;;;;;31.33;25.40;;;;;;;18.23;100.00;101367.59;5032063;28;20466;-40
2022/08/20 05:05:56;;;;;;;25.63;23.03;;;;;;;18.30;100.00;101364.81;5030425;28;20448;-40
2022/08/20 05:08:25;;;;;;;23.57;21.10;;;;;;;18.40;100.00;101354.28;5030270;28;20438;-42
2022/08/20 05:10:55;;;;;;;23.80;21.30;;;;;;;18.51;100.00;101364.28;5030822;28;20937;-40
2022/08/20 05:13:44;;;;;;;22.50;19.80;;;;;;;18.64;100.00;101358.63;5031525;28;20483;-42
2022/08/20 05:16:13;;;;;;;27.13;20.30;;;;;;;18.85;100.00;101363.47;5031866;28;20428;-40
2022/08/20 05:18:42;;;;;;;24.80;21.60;;;;;;;19.07;100.00;101359.09;5032592;28;20451;-42
2022/08/20 05:21:09;;;;;;;20.73;18.77;;;;;;;19.29;100.00;101362.00;5031837;28;20455;-41
2022/08/20 05:23:42;;;;;;;20.73;18.80;;;;;;;19.51;100.00;101362.19;5032267;28;20431;-43
2022/08/20 05:26:10;;;;;;;21.53;19.37;;;;;;;19.65;100.00;101356.25;5031743;28;20436;-39
2022/08/20 05:28:40;;;;;;;21.97;19.80;;;;;;;19.80;100.00;101347.63;5032437;28;20427;-43
2022/08/20 05:31:26;;;;;;;21.63;19.57;;;;;;;20.05;100.00;101353.47;5031819;28;20886;-43
2022/08/20 05:34:00;;;;;;;22.70;18.70;;;;;;;20.61;100.00;101344.41;5023170;28;20481;-42
2022/08/20 05:36:27;;;;;;;16.87;15.47;;;;;;;21.55;100.00;101344.31;5031991;28;20531;-42
2022/08/20 05:38:55;;;;;;;14.43;13.13;;;;;;;22.61;100.00;101346.94;5031468;28;20534;-43
2022/08/20 05:41:22;;;;;;;16.13;14.67;;;;;;;23.41;100.00;101345.81;5031037;28;20456;-42
2022/08/20 05:43:58;;;;;;;13.73;12.70;;;;;;;24.19;100.00;101352.00;5031068;28;20435;-41
2022/08/20 05:46:27;;;;;;;12.37;11.37;;;;;;;24.41;88.06;101351.72;5030939;28;20438;-43
2022/08/20 05:48:55;;;;;;;13.00;12.10;;;;;;;24.59;85.30;101351.97;5033204;28;20436;-43
2022/08/20 05:51:26;;;;;;;11.60;10.80;;;;;;;24.64;84.48;101357.41;5034367;28;20968;-40
2022/08/20 05:53:54;;;;;;;11.50;10.70;;;;;;;24.76;84.08;101357.13;5033993;28;20481;-40
2022/08/20 05:56:24;;;;;;;9.90;9.30;;;;;;;24.94;82.25;101355.78;5034442;28;20489;-43
2022/08/20 05:58:53;;;;;;;9.90;9.20;;;;;;;25.13;77.31;101367.69;5034777;28;20435;-41
2022/08/20 06:01:21;;;;;;;10.10;9.20;;;;;;;25.27;78.53;101364.09;5034211;28;20470;-41
2022/08/20 06:06:35;;;;;;;8.27;7.67;;;;;;;26.56;77.90;101361.94;5034852;28;20824;-43
2022/08/20 06:09:13;;;;;;;8.87;8.37;;;;;;;27.35;72.67;101363.28;5024147;28;20431;-44
2022/08/20 06:11:41;;;;;;;11.43;10.30;;;;;;;27.85;65.60;101348.09;5034055;28;21015;-44
2022/08/20 06:14:09;;;;;;;10.50;9.70;;;;;;;28.07;64.37;101353.84;5034503;28;20474;-43
2022/08/20 06:16:36;;;;;;;8.23;7.63;;;;;;;28.15;58.85;101361.38;5034394;28;20462;-42
2022/08/20 06:19:06;;;;;;;7.80;7.30;;;;;;;28.53;58.13;101370.31;5034376;28;20431;-41
2022/08/20 06:21:38;;;;;;;7.80;7.20;;;;;;;29.00;57.26;101372.75;5034007;28;20463;-43
2022/08/20 06:24:06;;;;;;;7.10;6.70;;;;;;;28.64;54.08;101369.09;5033921;28;20659;-45
2022/08/20 06:26:35;;;;;;;5.70;5.47;;;;;;;28.73;50.94;101364.53;5034591;28;20262;-46
2022/08/20 06:29:04;;;;;;;5.63;5.33;;;;;;;28.70;54.87;101375.28;5034348;28;20204;-45
2022/08/20 06:31:33;;;;;;;9.03;5.80;;;;;;;28.89;50.29;101371.34;5034019;28;20621;-44
2022/08/20 06:34:01;;;;;;;5.40;5.10;;;;;;;29.20;53.69;101371.56;5034111;28;20231;-41
2022/08/20 06:36:30;;;;;;;6.43;5.83;;;;;;;29.46;52.27;101366.38;5033708;28;20213;-43
2022/08/20 06:38:58;;;;;;;6.60;6.03;;;;;;;29.20;50.28;101362.50;5032359;28;20200;-44
2022/08/20 06:41:25;;;;;;;7.20;5.47;;;;;;;29.66;52.29;101365.91;5031826;28;20225;-43
2022/08/20 06:44:04;;;;;;;5.10;4.77;;;;;;;30.11;50.67;101367.66;5032288;28;20688;-42
2022/08/20 06:46:31;;;;;;;5.93;5.60;;;;;;;30.09;47.45;101358.09;5033199;28;20197;-42
2022/08/20 06:48:59;;;;;;;5.20;4.80;;;;;;;30.03;45.82;101368.41;5033604;28;20193;-42
2022/08/20 06:51:28;;;;;;;5.53;5.30;;;;;;;30.15;48.97;101368.66;5033453;28;20244;-43
2022/08/20 06:53:57;;;;;;;4.97;4.77;;;;;;;30.54;48.34;101373.47;5033016;28;20216;-43
2022/08/20 06:56:25;;;;;;;4.97;4.67;;;;;;;30.77;49.80;101373.41;5033921;28;20205;-42
2022/08/20 06:58:53;;;;;;;4.90;4.17;;;;;;;30.99;46.18;101382.47;5033760;28;20197;-41
2022/08/20 07:01:20;;;;;;;5.63;5.33;;;;;;;30.22;45.86;101381.16;5032565;28;20225;-44
2022/08/20 07:03:49;;;;;;;5.03;4.83;;;;;;;30.15;47.90;101376.91;5033597;28;20274;-42
2022/08/20 07:06:24;;;;;;;4.55;4.35;;;;;;;30.01;47.21;101375.34;5034332;28;20200;-47
2022/08/20 07:08:51;;;;;;;4.73;4.43;;;;;;;30.05;48.16;101368.06;5034110;28;20193;-46
2022/08/20 07:11:20;;;;;;;5.10;4.80;;;;;;;30.17;47.79;101377.41;5033817;28;20559;-44
2022/08/20 07:13:55;;;;;;;5.83;5.43;;;;;;;29.91;47.98;101384.63;5033724;28;20230;-45
2022/08/20 07:16:22;;;;;;;5.67;4.10;;;;;;;30.22;48.44;101378.41;5029061;28;20297;-45
2022/08/20 07:18:50;;;;;;;5.85;5.55;;;;;;;30.16;49.11;101375.78;5033146;28;20205;-44
2022/08/20 07:21:18;;;;;;;5.13;4.93;;;;;;;29.40;47.92;101373.09;5032576;28;20208;-45
2022/08/20 07:23:48;;;;;;;6.75;6.35;;;;;;;28.61;49.48;101372.41;5033241;28;20197;-45
2022/08/20 07:26:15;;;;;;;6.70;6.10;;;;;;;27.62;52.06;101384.63;5033312;28;20188;-46
2022/08/20 07:28:45;;;;;;;7.10;6.20;;;;;;;28.14;53.11;101389.06;5033467;28;20203;-45
2022/08/20 07:34:01;;;;;;;7.23;6.77;;;;;;;27.86;54.44;101388.13;5032998;28;20216;-45
2022/08/20 07:36:29;;;;;;;5.90;5.50;;;;;;;27.17;54.79;101394.19;5033263;28;20236;-44
2022/08/20 07:38:58;;;;;;;6.53;6.13;;;;;;;26.55;57.09;101390.41;5033071;28;20197;-43
2022/08/20 07:41:33;;;;;;;5.73;5.33;;;;;;;25.66;59.70;101393.44;5032200;28;20454;-43
2022/08/20 07:44:02;;;;;;;7.53;6.17;;;;;;;25.78;60.59;101385.72;5032565;28;20193;-43
2022/08/20 07:46:30;;;;;;;7.60;5.77;;;;;;;25.46;61.45;101399.78;5055751;23;20483;-43
2022/08/20 07:48:58;;;;;;;6.07;5.77;;;;;;;25.15;62.64;101403.72;5032730;28;20432;-42
2022/08/20 07:51:27;;;;;;;9.10;5.40;;;;;;;25.25;62.92;101398.22;5029634;28;20460;-47
2022/08/20 07:53:57;;;;;;;7.07;6.40;;;;;;;25.47;63.33;101400.63;5031339;28;20482;-42
2022/08/20 07:56:25;;;;;;;5.90;5.40;;;;;;;25.81;62.54;101394.19;5029308;28;20447;-43
2022/08/20 07:58:57;;;;;;;5.60;5.10;;;;;;;25.66;61.51;101394.25;5030951;28;20434;-43
2022/08/20 08:01:30;;;;;;;4.90;4.50;;;;;;;25.41;61.70;101402.56;5031937;28;20459;-41
2022/08/20 08:03:59;;;;;;;5.03;4.63;;;;;;;25.18;62.24;101403.16;5031778;28;20434;-45
2022/08/20 08:06:29;;;;;;;4.70;4.30;;;;;;;25.30;61.77;101403.66;5031537;28;20887;-46
2022/08/20 08:09:02;;;;;;;5.27;4.77;;;;;;;25.52;62.91;101406.91;5032089;28;20431;-45
2022/08/20 08:11:33;;;;;;;5.20;4.80;;;;;;;26.18;59.82;101414.75;5030549;28;20809;-40
2022/08/20 08:14:02;;;;;;;5.07;4.27;;;;;;;26.66;58.01;101413.00;5022017;28;20563;-43
2022/08/20 08:16:31;;;;;;;5.43;4.50;;;;;;;26.91;56.63;101410.06;5031671;28;20456;-48
2022/08/20 08:19:00;;;;;;;4.33;3.33;;;;;;;27.32;54.30;101415.91;5032175;28;20442;-43
2022/08/20 08:21:28;;;;;;;5.13;4.63;;;;;;;27.77;53.88;101407.16;5031300;28;20972;-45
2022/08/20 08:23:57;;;;;;;3.87;3.60;;;;;;;27.44;53.55;101408.13;5032014;28;20442;-43
2022/08/20 08:26:25;;;;;;;7.60;4.60;;;;;;;27.51;52.97;101419.53;5031911;28;20484;-44
2022/08/20 08:28:52;;;;;;;5.67;3.93;;;;;;;27.44;52.15;101416.34;5031702;28;20925;-44
2022/08/20 08:31:20;;;;;;;6.13;3.63;;;;;;;27.27;53.45;101416.78;5031517;28;20460;-44
2022/08/20 08:33:49;;;;;;;3.60;3.30;;;;;;;27.36;51.35;101423.25;5031714;28;20432;-45
2022/08/20 08:36:17;;;;;;;5.87;4.13;;;;;;;27.28;50.21;101425.81;5031673;28;20502;-44
2022/08/20 08:38:45;;;;;;;4.27;3.63;;;;;;;27.21;50.12;101428.91;5031960;28;20432;-43
2022/08/20 08:41:17;;;;;;;8.73;3.77;;;;;;;27.31;50.70;101425.22;5030695;28;20437;-43
2022/08/20 08:43:47;;;;;;;3.67;3.37;;;;;;;27.24;50.16;101424.78;5031265;28;20450;-42
2022/08/20 08:46:21;;;;;;;4.40;3.60;;;;;;;27.11;48.21;101429.03;5031378;28;20459;-46
2022/08/20 08:48:54;;;;;;;9.00;4.27;;;;;;;26.44;48.90;101427.13;5031774;28;20440;-46
2022/08/20 08:51:28;;;;;;;7.13;4.13;;;;;;;25.75;51.14;101433.56;5031457;28;20443;-44
2022/08/20 08:53:57;;;;;;;4.37;3.50;;;;;;;25.97;51.00;101440.56;5030018;28;20522;-43
2022/08/20 08:56:29;;;;;;;3.90;3.20;;;;;;;26.22;50.31;101437.72;5031431;28;20475;-43
2022/08/20 08:59:01;;;;;;;8.70;4.30;;;;;;;26.25;50.25;101437.13;5031081;28;20955;-47
2022/08/20 09:01:31;;;;;;;5.37;3.77;;;;;;;26.07;50.85;101441.31;5029079;28;20458;-44
2022/08/20 09:04:22;;;;;;;4.20;3.80;;;;;;;25.39;52.67;101445.69;5029094;28;20448;-46
2022/08/20 09:06:52;;;;;;;6.53;4.00;;;;;;;25.26;54.46;101449.00;5019547;28;20451;-43
2022/08/20 09:09:24;;;;;;;3.90;3.50;;;;;;;25.70;53.60;101447.25;5031024;28;20478;-43
2022/08/20 09:11:55;;;;;;;6.90;4.10;;;;;;;26.01;50.17;101450.66;5030426;28;20478;-43
2022/08/20 09:14:24;;;;;;;5.53;4.00;;;;;;;26.36;49.46;101444.97;5030228;28;20439;-44
2022/08/20 09:16:52;;;;;;;4.60;3.40;;;;;;;26.68;48.41;101452.66;5031117;28;20448;-44
2022/08/20 09:19:21;;;;;;;5.60;3.47;;;;;;;26.66;47.00;101454.88;5031056;28;20797;-43
2022/08/20 09:21:49;;;;;;;7.33;3.47;;;;;;;26.74;44.85;101453.41;5030682;28;20455;-43
2022/08/20 09:24:17;;;;;;;9.00;3.93;;;;;;;26.85;44.79;101455.03;5034085;28;20526;-43
2022/08/20 09:26:44;;;;;;;4.50;2.73;;;;;;;26.81;45.16;101459.44;5035280;28;20455;-44
2022/08/20 09:29:12;;;;;;;6.63;3.40;;;;;;;26.88;43.05;101455.25;5035136;28;20435;-46
2022/08/20 09:31:41;;;;;;;3.47;3.20;;;;;;;26.78;41.22;101449.03;5034513;28;21017;-43
2022/08/20 09:34:09;;;;;;;4.43;3.20;;;;;;;26.70;43.75;101461.38;5022602;28;20435;-44
2022/08/20 09:36:38;;;;;;;5.83;3.73;;;;;;;26.67;42.65;101455.69;5029845;28;20475;-48
2022/08/20 09:39:05;;;;;;;2.90;2.60;;;;;;;27.00;43.00;101445.84;5032391;28;20801;-44
2022/08/20 09:41:33;;;;;;;3.83;3.20;;;;;;;26.83;42.37;101441.59;5027836;28;20455;-45
2022/08/20 09:44:01;;;;;;;6.33;3.23;;;;;;;26.74;41.37;101445.22;5032570;28;20932;-44
2022/08/20 09:46:29;;;;;;;24.37;5.07;;;;;;;27.10;42.46;101445.72;5032846;28;20463;-44
2022/08/20 09:48:57;;;;;;;5.87;3.20;;;;;;;27.12;42.07;101447.06;5033058;28;20436;-44
2022/08/20 09:51:24;;;;;;;3.97;3.23;;;;;;;27.34;43.51;101452.84;5031970;28;20455;-45
2022/08/20 09:53:54;;;;;;;6.77;2.80;;;;;;;27.43;40.36;101458.53;5032229;28;20816;-43
2022/08/20 09:56:24;;;;;;;6.33;4.03;;;;;;;27.44;40.40;101460.19;5032955;28;20843;-44
2022/08/20 09:58:54;;;;;;;5.00;2.97;;;;;;;27.56;41.17;101451.53;5032675;28;20474;-43
2022/08/20 10:01:25;;;;;;;7.10;3.77;;;;;;;27.23;41.93;101459.56;5032077;28;20467;-44
2022/08/20 10:03:53;;;;;;;4.07;2.83;;;;;;;27.28;40.49;101459.50;5035806;28;20431;-44
2022/08/20 10:06:20;;;;;;;6.53;3.67;;;;;;;27.24;41.06;101452.16;5032831;28;20439;-43
2022/08/20 10:08:49;;;;;;;3.80;2.40;;;;;;;27.23;41.37;101458.75;5032829;28;20441;-43
2022/08/20 10:11:18;;;;;;;4.77;3.30;;;;;;;27.27;40.70;101455.13;5031295;28;20428;-47
2022/08/20 10:13:47;;;;;;;12.53;3.60;;;;;;;27.35;41.29;101448.19;5032180;28;20435;-45
2022/08/20 10:16:14;;;;;;;8.10;3.03;;;;;;;27.40;40.90;101453.63;5032383;28;21165;-49
2022/08/20 10:18:42;;;;;;;6.13;3.20;;;;;;;27.33;40.85;101459.44;5037179;28;20434;-43
2022/08/20 10:21:11;;;;;;;4.83;3.07;;;;;;;27.46;41.18;101452.47;5039222;28;20436;-44
2022/08/20 10:23:38;;;;;;;4.37;3.80;;;;;;;26.87;42.42;101459.09;5032114;28;20424;-46
2022/08/20 10:26:07;;;;;;;3.23;2.70;;;;;;;26.55;42.57;101453.31;5031671;28;20981;-45
2022/08/20 10:28:36;;;;;;;2.50;2.30;;;;;;;26.61;41.94;101452.16;5032442;28;20580;-43
2022/08/20 10:31:06;;;;;;;3.70;2.83;;;;;;;26.12;42.83;101448.66;5031253;28;20438;-47
2022/08/20 10:33:34;;;;;;;5.07;3.00;;;;;;;26.36;42.75;101450.47;5031997;28;20432;-47
2022/08/20 10:36:06;;;;;;;7.30;2.67;;;;;;;26.47;40.24;101456.66;5030902;28;20841;-47
2022/08/20 10:38:34;;;;;;;3.13;2.83;;;;;;;26.44;39.07;101459.97;5032137;28;20432;-44
2022/08/20 10:41:01;;;;;;;3.90;2.77;;;;;;;26.02;40.18;101465.13;5031128;28;20438;-47
2022/08/20 10:43:29;;;;;;;4.20;2.90;;;;;;;26.04;42.73;101457.47;5031628;28;20439;-45
2022/08/20 10:45:58;;;;;;;3.97;3.30;;;;;;;26.18;42.25;101472.16;5031947;28;20480;-47
2022/08/20 10:48:26;;;;;;;4.73;3.10;;;;;;;25.77;43.00;101468.81;5032043;28;20435;-45
2022/08/20 10:50:54;;;;;;;6.47;3.10;;;;;;;25.60;43.54;101468.31;5031387;28;20446;-48
2022/08/20 10:53:21;;;;;;;4.53;2.93;;;;;;;25.77;42.06;101466.06;5031056;28;20456;-45
2022/08/20 10:55:49;;;;;;;3.63;2.97;;;;;;;26.10;41.49;101462.63;5031945;28;20484;-44
2022/08/20 10:58:17;;;;;;;3.10;2.80;;;;;;;25.98;41.04;101469.53;5006312;28;20470;-44
2022/08/20 11:00:49;;;;;;;4.57;3.43;;;;;;;26.26;42.72;101461.44;5031318;28;20459;-43
2022/08/20 11:03:19;;;;;;;4.60;3.20;;;;;;;26.31;38.00;101464.13;5031032;28;20800;-45
2022/08/20 11:05:46;;;;;;;6.50;2.87;;;;;;;26.45;39.59;101469.81;5031493;28;20459;-44
2022/08/20 11:08:14;;;;;;;5.87;2.70;;;;;;;26.37;39.79;101471.22;5031307;28;20458;-45
2022/08/20 11:11:00;;;;;;;4.73;2.83;;;;;;;26.37;40.78;101476.69;5030489;28;20477;-45
2022/08/20 11:13:28;;;;;;;4.33;2.80;;;;;;;26.26;39.77;101480.59;5013232;28;20443;-46
2022/08/20 11:15:55;;;;;;;4.13;3.67;;;;;;;26.07;41.56;101474.13;5013299;28;20547;-46
2022/08/20 11:18:24;;;;;;;4.10;3.00;;;;;;;26.29;39.29;101465.53;5013377;28;20446;-46
2022/08/20 11:20:52;;;;;;;8.90;3.13;;;;;;;26.07;40.07;101467.84;5027910;28;20553;-44
2022/08/20 11:23:20;;;;;;;6.00;3.60;;;;;;;25.75;41.44;101477.28;5031026;28;20438;-43
2022/08/20 11:25:48;;;;;;;3.00;2.67;;;;;;;25.72;42.84;101472.38;5032316;28;20456;-43
2022/08/20 11:28:16;;;;;;;4.17;3.37;;;;;;;25.79;41.43;101480.25;5032951;28;20420;-43
2022/08/20 11:30:57;;;;;;;3.93;2.53;;;;;;;25.71;42.24;101476.22;5032483;28;20482;-45
2022/08/20 11:33:26;;;;;;;10.33;3.20;;;;;;;25.18;43.14;101476.84;5032623;28;20428;-44